Terminal Aerodrome Forecast
Issued by NWS Pendleton, OR

Home | Current Version | Previous Version | Text Only | Print | Product List | Glossary On
Versions: 1 2 3 4 5 6 7 8 9 10 11 12 13 14 15 16 17
000
FTUS46 KPDT 221100
TAFPDT
TAF
KPDT 221139Z 2212/2312 29011KT P6SM OVC080
     FM221700 28010KT P6SM SCT025 BKN070
     FM222000 30010KT P6SM BKN150
     FM230100 VRB04KT P6SM BKN120
     FM230900 13004KT P6SM BKN090=

USA.gov is the U.S. government's official web portal to all federal, state and local government web resources and services.